sensor_id;sensor_type;location;lat;lon;timestamp;P1;durP1;ratioP1;P2;durP2;ratioP2
9102;SDS011;4587;51.434;6.788;2022-10-16T00:02:19;7.40;;;4.43;;
9102;SDS011;4587;51.434;6.788;2022-10-16T00:04:45;6.03;;;4.27;;
9102;SDS011;4587;51.434;6.788;2022-10-16T00:07:10;5.53;;;4.10;;
9102;SDS011;4587;51.434;6.788;2022-10-16T00:09:36;5.50;;;4.10;;
9102;SDS011;4587;51.434;6.788;2022-10-16T00:12:01;8.33;;;4.10;;
9102;SDS011;4587;51.434;6.788;2022-10-16T00:14:29;5.80;;;4.50;;
9102;SDS011;4587;51.434;6.788;2022-10-16T00:16:54;5.80;;;4.10;;
9102;SDS011;4587;51.434;6.788;2022-10-16T00:19:20;6.40;;;4.10;;
9102;SDS011;4587;51.434;6.788;2022-10-16T00:21:45;5.87;;;4.30;;
9102;SDS011;4587;51.434;6.788;2022-10-16T00:24:11;6.17;;;4.13;;
9102;SDS011;4587;51.434;6.788;2022-10-16T00:26:37;9.17;;;4.60;;
9102;SDS011;4587;51.434;6.788;2022-10-16T00:29:04;6.97;;;4.17;;
9102;SDS011;4587;51.434;6.788;2022-10-16T00:31:30;5.73;;;4.20;;
9102;SDS011;4587;51.434;6.788;2022-10-16T00:33:56;11.57;;;5.30;;
9102;SDS011;4587;51.434;6.788;2022-10-16T00:36:22;7.17;;;4.60;;
9102;SDS011;4587;51.434;6.788;2022-10-16T00:38:50;6.37;;;3.70;;
9102;SDS011;4587;51.434;6.788;2022-10-16T00:41:20;6.30;;;4.13;;
9102;SDS011;4587;51.434;6.788;2022-10-16T00:43:55;7.60;;;4.60;;
9102;SDS011;4587;51.434;6.788;2022-10-16T00:46:23;6.63;;;4.03;;
9102;SDS011;4587;51.434;6.788;2022-10-16T00:49:04;8.93;;;4.10;;
9102;SDS011;4587;51.434;6.788;2022-10-16T00:51:40;5.07;;;4.10;;
9102;SDS011;4587;51.434;6.788;2022-10-16T00:54:10;6.63;;;4.40;;
9102;SDS011;4587;51.434;6.788;2022-10-16T00:56:39;7.73;;;4.50;;
9102;SDS011;4587;51.434;6.788;2022-10-16T00:59:07;7.67;;;4.17;;
9102;SDS011;4587;51.434;6.788;2022-10-16T01:01:44;7.50;;;4.17;;
9102;SDS011;4587;51.434;6.788;2022-10-16T01:04:09;6.50;;;4.83;;
9102;SDS011;4587;51.434;6.788;2022-10-16T01:07:00;7.97;;;5.00;;
9102;SDS011;4587;51.434;6.788;2022-10-16T01:09:59;7.93;;;4.73;;
9102;SDS011;4587;51.434;6.788;2022-10-16T01:12:50;6.70;;;5.57;;
9102;SDS011;4587;51.434;6.788;2022-10-16T01:20:30;9.00;;;5.77;;
9102;SDS011;4587;51.434;6.788;2022-10-16T01:25:50;11.27;;;6.00;;
9102;SDS011;4587;51.434;6.788;2022-10-16T01:28:41;8.53;;;5.53;;
9102;SDS011;4587;51.434;6.788;2022-10-16T01:31:10;8.53;;;6.10;;
9102;SDS011;4587;51.434;6.788;2022-10-16T01:33:45;7.83;;;5.90;;
9102;SDS011;4587;51.434;6.788;2022-10-16T01:36:21;9.10;;;5.57;;
9102;SDS011;4587;51.434;6.788;2022-10-16T01:38:54;5.40;;;4.90;;
9102;SDS011;4587;51.434;6.788;2022-10-16T01:41:36;8.53;;;5.17;;
9102;SDS011;4587;51.434;6.788;2022-10-16T01:44:08;9.93;;;5.40;;
9102;SDS011;4587;51.434;6.788;2022-10-16T01:46:36;6.90;;;5.10;;
9102;SDS011;4587;51.434;6.788;2022-10-16T01:49:03;6.53;;;4.93;;
9102;SDS011;4587;51.434;6.788;2022-10-16T01:51:30;8.53;;;5.33;;
9102;SDS011;4587;51.434;6.788;2022-10-16T01:53:57;8.90;;;5.83;;
9102;SDS011;4587;51.434;6.788;2022-10-16T01:56:25;6.10;;;5.40;;
9102;SDS011;4587;51.434;6.788;2022-10-16T01:58:53;7.60;;;5.57;;
9102;SDS011;4587;51.434;6.788;2022-10-16T02:01:24;7.63;;;6.10;;
9102;SDS011;4587;51.434;6.788;2022-10-16T02:03:53;10.43;;;5.77;;
9102;SDS011;4587;51.434;6.788;2022-10-16T02:06:22;6.43;;;5.00;;
9102;SDS011;4587;51.434;6.788;2022-10-16T02:08:48;5.97;;;5.00;;
9102;SDS011;4587;51.434;6.788;2022-10-16T02:11:14;7.00;;;4.93;;
9102;SDS011;4587;51.434;6.788;2022-10-16T02:16:32;5.33;;;4.10;;
9102;SDS011;4587;51.434;6.788;2022-10-16T02:19:08;6.03;;;4.23;;
9102;SDS011;4587;51.434;6.788;2022-10-16T02:21:44;7.23;;;3.67;;
9102;SDS011;4587;51.434;6.788;2022-10-16T02:24:23;5.97;;;3.33;;
9102;SDS011;4587;51.434;6.788;2022-10-16T02:29:47;6.30;;;3.03;;
9102;SDS011;4587;51.434;6.788;2022-10-16T02:32:24;5.03;;;3.00;;
9102;SDS011;4587;51.434;6.788;2022-10-16T02:34:55;4.30;;;2.60;;
9102;SDS011;4587;51.434;6.788;2022-10-16T02:37:22;4.40;;;2.60;;
9102;SDS011;4587;51.434;6.788;2022-10-16T02:39:49;6.43;;;2.77;;
9102;SDS011;4587;51.434;6.788;2022-10-16T02:42:15;4.40;;;2.20;;
9102;SDS011;4587;51.434;6.788;2022-10-16T02:44:43;7.07;;;2.30;;
9102;SDS011;4587;51.434;6.788;2022-10-16T02:47:08;7.17;;;2.00;;
9102;SDS011;4587;51.434;6.788;2022-10-16T02:49:34;4.13;;;1.90;;
9102;SDS011;4587;51.434;6.788;2022-10-16T02:52:00;6.83;;;2.20;;
9102;SDS011;4587;51.434;6.788;2022-10-16T02:54:25;3.00;;;2.03;;
9102;SDS011;4587;51.434;6.788;2022-10-16T02:56:51;3.93;;;1.93;;
9102;SDS011;4587;51.434;6.788;2022-10-16T02:59:17;2.93;;;1.83;;
9102;SDS011;4587;51.434;6.788;2022-10-16T03:01:42;3.63;;;1.90;;
9102;SDS011;4587;51.434;6.788;2022-10-16T03:04:08;3.90;;;2.30;;
9102;SDS011;4587;51.434;6.788;2022-10-16T03:06:34;3.63;;;2.07;;
9102;SDS011;4587;51.434;6.788;2022-10-16T03:08:59;4.67;;;1.70;;
9102;SDS011;4587;51.434;6.788;2022-10-16T03:11:25;5.17;;;1.90;;
9102;SDS011;4587;51.434;6.788;2022-10-16T03:13:51;4.63;;;1.93;;
9102;SDS011;4587;51.434;6.788;2022-10-16T03:16:17;4.63;;;2.10;;
9102;SDS011;4587;51.434;6.788;2022-10-16T03:18:42;2.87;;;1.70;;
9102;SDS011;4587;51.434;6.788;2022-10-16T03:21:08;3.00;;;1.87;;
9102;SDS011;4587;51.434;6.788;2022-10-16T03:23:33;4.50;;;1.83;;
9102;SDS011;4587;51.434;6.788;2022-10-16T03:25:59;1.97;;;1.60;;
9102;SDS011;4587;51.434;6.788;2022-10-16T03:28:24;4.03;;;1.80;;
9102;SDS011;4587;51.434;6.788;2022-10-16T03:30:50;2.70;;;1.83;;
9102;SDS011;4587;51.434;6.788;2022-10-16T03:33:15;2.43;;;1.60;;
9102;SDS011;4587;51.434;6.788;2022-10-16T03:35:41;3.00;;;1.73;;
9102;SDS011;4587;51.434;6.788;2022-10-16T03:38:06;2.03;;;1.50;;
9102;SDS011;4587;51.434;6.788;2022-10-16T03:40:32;4.20;;;1.50;;
9102;SDS011;4587;51.434;6.788;2022-10-16T03:42:58;2.30;;;1.53;;
9102;SDS011;4587;51.434;6.788;2022-10-16T03:45:24;1.63;;;1.47;;
9102;SDS011;4587;51.434;6.788;2022-10-16T03:47:51;1.90;;;1.40;;
9102;SDS011;4587;51.434;6.788;2022-10-16T03:50:16;1.57;;;1.30;;
9102;SDS011;4587;51.434;6.788;2022-10-16T03:52:42;4.50;;;1.60;;
9102;SDS011;4587;51.434;6.788;2022-10-16T03:55:07;1.93;;;1.47;;
9102;SDS011;4587;51.434;6.788;2022-10-16T03:57:33;3.00;;;1.30;;
9102;SDS011;4587;51.434;6.788;2022-10-16T03:59:59;3.83;;;1.70;;
9102;SDS011;4587;51.434;6.788;2022-10-16T04:02:24;2.37;;;1.33;;
9102;SDS011;4587;51.434;6.788;2022-10-16T04:04:50;5.93;;;1.50;;
9102;SDS011;4587;51.434;6.788;2022-10-16T04:07:16;2.10;;;1.40;;
9102;SDS011;4587;51.434;6.788;2022-10-16T04:09:41;2.60;;;1.47;;
9102;SDS011;4587;51.434;6.788;2022-10-16T04:12:07;2.07;;;1.33;;
9102;SDS011;4587;51.434;6.788;2022-10-16T04:14:33;2.20;;;1.33;;
9102;SDS011;4587;51.434;6.788;2022-10-16T04:16:59;2.03;;;1.37;;
9102;SDS011;4587;51.434;6.788;2022-10-16T04:19:24;2.17;;;1.27;;
9102;SDS011;4587;51.434;6.788;2022-10-16T04:21:50;3.93;;;1.63;;
9102;SDS011;4587;51.434;6.788;2022-10-16T04:24:15;2.13;;;1.10;;
9102;SDS011;4587;51.434;6.788;2022-10-16T04:26:41;2.10;;;1.20;;
9102;SDS011;4587;51.434;6.788;2022-10-16T04:29:06;2.63;;;1.50;;
9102;SDS011;4587;51.434;6.788;2022-10-16T04:31:32;2.47;;;1.40;;
9102;SDS011;4587;51.434;6.788;2022-10-16T04:33:58;2.33;;;1.40;;
9102;SDS011;4587;51.434;6.788;2022-10-16T04:36:24;2.33;;;1.40;;
9102;SDS011;4587;51.434;6.788;2022-10-16T04:38:49;1.53;;;1.20;;
9102;SDS011;4587;51.434;6.788;2022-10-16T04:41:15;2.37;;;1.63;;
9102;SDS011;4587;51.434;6.788;2022-10-16T04:43:40;2.10;;;1.40;;
9102;SDS011;4587;51.434;6.788;2022-10-16T04:46:06;2.10;;;1.50;;
9102;SDS011;4587;51.434;6.788;2022-10-16T04:48:31;2.07;;;1.40;;
9102;SDS011;4587;51.434;6.788;2022-10-16T04:50:57;3.27;;;1.50;;
9102;SDS011;4587;51.434;6.788;2022-10-16T04:53:23;2.73;;;1.50;;
9102;SDS011;4587;51.434;6.788;2022-10-16T04:55:49;3.23;;;1.40;;
9102;SDS011;4587;51.434;6.788;2022-10-16T04:58:14;2.50;;;1.50;;
9102;SDS011;4587;51.434;6.788;2022-10-16T05:00:40;3.53;;;1.40;;
9102;SDS011;4587;51.434;6.788;2022-10-16T05:03:05;2.63;;;1.60;;
9102;SDS011;4587;51.434;6.788;2022-10-16T05:05:33;2.60;;;1.27;;
9102;SDS011;4587;51.434;6.788;2022-10-16T05:08:00;5.33;;;1.50;;
9102;SDS011;4587;51.434;6.788;2022-10-16T05:10:25;3.13;;;1.47;;
9102;SDS011;4587;51.434;6.788;2022-10-16T05:12:51;2.33;;;1.50;;
9102;SDS011;4587;51.434;6.788;2022-10-16T05:15:17;4.83;;;1.43;;
9102;SDS011;4587;51.434;6.788;2022-10-16T05:17:43;4.03;;;1.47;;
9102;SDS011;4587;51.434;6.788;2022-10-16T05:20:09;1.77;;;1.20;;
9102;SDS011;4587;51.434;6.788;2022-10-16T05:22:35;2.03;;;1.50;;
9102;SDS011;4587;51.434;6.788;2022-10-16T05:25:00;1.40;;;1.20;;
9102;SDS011;4587;51.434;6.788;2022-10-16T05:27:26;2.17;;;1.10;;
9102;SDS011;4587;51.434;6.788;2022-10-16T05:29:51;2.17;;;1.40;;
9102;SDS011;4587;51.434;6.788;2022-10-16T05:32:17;4.90;;;1.30;;
9102;SDS011;4587;51.434;6.788;2022-10-16T05:34:44;2.03;;;1.30;;
9102;SDS011;4587;51.434;6.788;2022-10-16T05:37:10;3.07;;;1.30;;
9102;SDS011;4587;51.434;6.788;2022-10-16T05:39:36;1.93;;;1.30;;
9102;SDS011;4587;51.434;6.788;2022-10-16T05:42:02;2.07;;;1.20;;
9102;SDS011;4587;51.434;6.788;2022-10-16T05:44:29;3.63;;;1.57;;
9102;SDS011;4587;51.434;6.788;2022-10-16T05:46:54;3.20;;;1.40;;
9102;SDS011;4587;51.434;6.788;2022-10-16T05:49:20;3.03;;;1.10;;
9102;SDS011;4587;51.434;6.788;2022-10-16T05:51:46;2.87;;;1.30;;
9102;SDS011;4587;51.434;6.788;2022-10-16T05:54:11;3.37;;;1.23;;
9102;SDS011;4587;51.434;6.788;2022-10-16T05:56:37;5.73;;;1.40;;
9102;SDS011;4587;51.434;6.788;2022-10-16T05:59:03;1.43;;;1.20;;
9102;SDS011;4587;51.434;6.788;2022-10-16T06:01:29;2.43;;;1.57;;
9102;SDS011;4587;51.434;6.788;2022-10-16T06:03:56;2.33;;;1.40;;
9102;SDS011;4587;51.434;6.788;2022-10-16T06:06:22;2.80;;;1.50;;
9102;SDS011;4587;51.434;6.788;2022-10-16T06:08:50;2.93;;;1.50;;
9102;SDS011;4587;51.434;6.788;2022-10-16T06:11:18;2.43;;;1.40;;
9102;SDS011;4587;51.434;6.788;2022-10-16T06:13:45;1.40;;;1.30;;
9102;SDS011;4587;51.434;6.788;2022-10-16T06:16:14;3.07;;;1.43;;
9102;SDS011;4587;51.434;6.788;2022-10-16T06:18:39;2.73;;;1.50;;
9102;SDS011;4587;51.434;6.788;2022-10-16T06:21:09;2.83;;;1.40;;
9102;SDS011;4587;51.434;6.788;2022-10-16T06:23:36;4.30;;;1.67;;
9102;SDS011;4587;51.434;6.788;2022-10-16T06:26:05;4.03;;;1.63;;
9102;SDS011;4587;51.434;6.788;2022-10-16T06:28:32;3.43;;;1.53;;
9102;SDS011;4587;51.434;6.788;2022-10-16T06:31:01;3.43;;;1.50;;
9102;SDS011;4587;51.434;6.788;2022-10-16T06:33:27;3.23;;;1.57;;
9102;SDS011;4587;51.434;6.788;2022-10-16T06:35:53;1.97;;;1.50;;
9102;SDS011;4587;51.434;6.788;2022-10-16T06:38:18;2.87;;;1.60;;
9102;SDS011;4587;51.434;6.788;2022-10-16T06:40:44;4.80;;;1.70;;
9102;SDS011;4587;51.434;6.788;2022-10-16T06:43:09;2.73;;;1.60;;
9102;SDS011;4587;51.434;6.788;2022-10-16T06:45:35;2.67;;;1.47;;
9102;SDS011;4587;51.434;6.788;2022-10-16T06:48:00;2.67;;;1.73;;
9102;SDS011;4587;51.434;6.788;2022-10-16T06:50:26;2.80;;;1.50;;
9102;SDS011;4587;51.434;6.788;2022-10-16T06:52:51;2.93;;;1.53;;
9102;SDS011;4587;51.434;6.788;2022-10-16T06:55:17;3.83;;;1.53;;
9102;SDS011;4587;51.434;6.788;2022-10-16T06:57:43;3.60;;;1.67;;
9102;SDS011;4587;51.434;6.788;2022-10-16T07:00:09;3.93;;;1.50;;
9102;SDS011;4587;51.434;6.788;2022-10-16T07:02:34;1.70;;;1.60;;
9102;SDS011;4587;51.434;6.788;2022-10-16T07:05:00;6.60;;;1.47;;
9102;SDS011;4587;51.434;6.788;2022-10-16T07:07:26;2.27;;;1.43;;
9102;SDS011;4587;51.434;6.788;2022-10-16T07:09:51;2.80;;;1.53;;
9102;SDS011;4587;51.434;6.788;2022-10-16T07:12:17;3.53;;;1.50;;
9102;SDS011;4587;51.434;6.788;2022-10-16T07:14:43;4.80;;;1.73;;
9102;SDS011;4587;51.434;6.788;2022-10-16T07:17:08;1.93;;;1.20;;
9102;SDS011;4587;51.434;6.788;2022-10-16T07:19:34;4.77;;;1.47;;
9102;SDS011;4587;51.434;6.788;2022-10-16T07:22:00;3.67;;;1.57;;
9102;SDS011;4587;51.434;6.788;2022-10-16T07:24:25;3.57;;;1.70;;
9102;SDS011;4587;51.434;6.788;2022-10-16T07:26:51;2.33;;;1.60;;
9102;SDS011;4587;51.434;6.788;2022-10-16T07:29:18;3.47;;;1.80;;
9102;SDS011;4587;51.434;6.788;2022-10-16T07:31:45;2.10;;;1.33;;
9102;SDS011;4587;51.434;6.788;2022-10-16T07:34:12;3.33;;;1.40;;
9102;SDS011;4587;51.434;6.788;2022-10-16T07:36:39;2.70;;;1.50;;
9102;SDS011;4587;51.434;6.788;2022-10-16T07:39:04;2.40;;;1.40;;
9102;SDS011;4587;51.434;6.788;2022-10-16T07:41:30;2.20;;;1.20;;
9102;SDS011;4587;51.434;6.788;2022-10-16T07:43:57;1.47;;;1.20;;
9102;SDS011;4587;51.434;6.788;2022-10-16T07:46:25;2.77;;;1.67;;
9102;SDS011;4587;51.434;6.788;2022-10-16T07:48:51;1.77;;;1.20;;
9102;SDS011;4587;51.434;6.788;2022-10-16T07:51:18;2.70;;;1.30;;
9102;SDS011;4587;51.434;6.788;2022-10-16T07:53:44;5.17;;;1.37;;
9102;SDS011;4587;51.434;6.788;2022-10-16T07:56:12;2.93;;;1.50;;
9102;SDS011;4587;51.434;6.788;2022-10-16T07:58:38;3.00;;;1.40;;
9102;SDS011;4587;51.434;6.788;2022-10-16T08:01:04;3.97;;;1.23;;
9102;SDS011;4587;51.434;6.788;2022-10-16T08:03:32;6.33;;;1.40;;
9102;SDS011;4587;51.434;6.788;2022-10-16T08:05:58;2.00;;;1.20;;
9102;SDS011;4587;51.434;6.788;2022-10-16T08:08:24;3.43;;;1.00;;
9102;SDS011;4587;51.434;6.788;2022-10-16T08:10:50;5.50;;;1.27;;
9102;SDS011;4587;51.434;6.788;2022-10-16T08:13:15;3.07;;;1.30;;
9102;SDS011;4587;51.434;6.788;2022-10-16T08:15:41;6.40;;;1.40;;
9102;SDS011;4587;51.434;6.788;2022-10-16T08:18:09;3.67;;;1.30;;
9102;SDS011;4587;51.434;6.788;2022-10-16T08:20:36;7.17;;;1.47;;
9102;SDS011;4587;51.434;6.788;2022-10-16T08:23:02;2.30;;;1.17;;
9102;SDS011;4587;51.434;6.788;2022-10-16T08:25:28;1.57;;;0.97;;
9102;SDS011;4587;51.434;6.788;2022-10-16T08:27:54;4.83;;;1.50;;
9102;SDS011;4587;51.434;6.788;2022-10-16T08:30:20;4.90;;;1.70;;
9102;SDS011;4587;51.434;6.788;2022-10-16T08:32:47;4.60;;;1.43;;
9102;SDS011;4587;51.434;6.788;2022-10-16T08:35:12;4.17;;;1.77;;
9102;SDS011;4587;51.434;6.788;2022-10-16T08:37:39;6.40;;;2.13;;
9102;SDS011;4587;51.434;6.788;2022-10-16T08:40:06;4.00;;;1.83;;
9102;SDS011;4587;51.434;6.788;2022-10-16T08:45:23;5.37;;;2.10;;
9102;SDS011;4587;51.434;6.788;2022-10-16T08:48:27;4.17;;;1.80;;
9102;SDS011;4587;51.434;6.788;2022-10-16T08:51:06;5.00;;;1.63;;
9102;SDS011;4587;51.434;6.788;2022-10-16T08:53:36;4.37;;;1.43;;
9102;SDS011;4587;51.434;6.788;2022-10-16T08:56:22;5.33;;;1.20;;
9102;SDS011;4587;51.434;6.788;2022-10-16T08:58:48;2.77;;;1.30;;
9102;SDS011;4587;51.434;6.788;2022-10-16T09:01:16;2.67;;;1.10;;
9102;SDS011;4587;51.434;6.788;2022-10-16T09:11:50;3.77;;;1.07;;
9102;SDS011;4587;51.434;6.788;2022-10-16T09:22:43;2.80;;;0.97;;
9102;SDS011;4587;51.434;6.788;2022-10-16T09:25:12;2.10;;;1.00;;
9102;SDS011;4587;51.434;6.788;2022-10-16T09:27:40;5.27;;;1.47;;
9102;SDS011;4587;51.434;6.788;2022-10-16T09:30:16;3.30;;;1.10;;
9102;SDS011;4587;51.434;6.788;2022-10-16T09:32:44;3.33;;;1.20;;
9102;SDS011;4587;51.434;6.788;2022-10-16T09:35:16;3.67;;;1.03;;
9102;SDS011;4587;51.434;6.788;2022-10-16T09:37:44;3.87;;;1.03;;
9102;SDS011;4587;51.434;6.788;2022-10-16T09:40:13;1.60;;;0.90;;
9102;SDS011;4587;51.434;6.788;2022-10-16T09:42:51;3.40;;;1.10;;
9102;SDS011;4587;51.434;6.788;2022-10-16T09:45:22;2.83;;;1.13;;
9102;SDS011;4587;51.434;6.788;2022-10-16T09:47:49;4.17;;;0.97;;
9102;SDS011;4587;51.434;6.788;2022-10-16T09:50:26;2.40;;;1.00;;
9102;SDS011;4587;51.434;6.788;2022-10-16T09:53:02;2.63;;;0.90;;
9102;SDS011;4587;51.434;6.788;2022-10-16T09:55:29;2.53;;;1.00;;
9102;SDS011;4587;51.434;6.788;2022-10-16T09:57:55;2.97;;;1.13;;
9102;SDS011;4587;51.434;6.788;2022-10-16T10:00:21;2.93;;;0.90;;
9102;SDS011;4587;51.434;6.788;2022-10-16T10:02:48;1.60;;;0.77;;
9102;SDS011;4587;51.434;6.788;2022-10-16T10:05:17;3.33;;;1.07;;
9102;SDS011;4587;51.434;6.788;2022-10-16T10:07:52;2.60;;;1.00;;
9102;SDS011;4587;51.434;6.788;2022-10-16T10:10:27;3.53;;;1.00;;
9102;SDS011;4587;51.434;6.788;2022-10-16T10:12:55;1.63;;;0.80;;
9102;SDS011;4587;51.434;6.788;2022-10-16T10:15:22;9.53;;;3.50;;
9102;SDS011;4587;51.434;6.788;2022-10-16T10:17:50;6.67;;;2.50;;
9102;SDS011;4587;51.434;6.788;2022-10-16T10:20:30;5.57;;;1.90;;
9102;SDS011;4587;51.434;6.788;2022-10-16T10:23:00;3.53;;;1.30;;
9102;SDS011;4587;51.434;6.788;2022-10-16T10:33:41;2.37;;;0.80;;
9102;SDS011;4587;51.434;6.788;2022-10-16T10:47:13;3.50;;;0.90;;
9102;SDS011;4587;51.434;6.788;2022-10-16T10:52:30;2.40;;;0.87;;
9102;SDS011;4587;51.434;6.788;2022-10-16T11:00:50;1.63;;;0.90;;
9102;SDS011;4587;51.434;6.788;2022-10-16T11:03:41;2.30;;;0.90;;
9102;SDS011;4587;51.434;6.788;2022-10-16T11:06:20;2.80;;;0.80;;
9102;SDS011;4587;51.434;6.788;2022-10-16T11:08:51;2.60;;;0.90;;
9102;SDS011;4587;51.434;6.788;2022-10-16T11:11:23;2.60;;;1.00;;
9102;SDS011;4587;51.434;6.788;2022-10-16T11:13:55;4.33;;;1.00;;
9102;SDS011;4587;51.434;6.788;2022-10-16T11:16:35;2.47;;;0.87;;
9102;SDS011;4587;51.434;6.788;2022-10-16T11:21:54;3.17;;;1.00;;
9102;SDS011;4587;51.434;6.788;2022-10-16T11:24:45;2.60;;;0.73;;
9102;SDS011;4587;51.434;6.788;2022-10-16T11:27:19;3.00;;;1.00;;
9102;SDS011;4587;51.434;6.788;2022-10-16T11:30:14;1.67;;;0.80;;
9102;SDS011;4587;51.434;6.788;2022-10-16T11:32:53;2.10;;;1.00;;
9102;SDS011;4587;51.434;6.788;2022-10-16T11:39:00;2.43;;;0.97;;
9102;SDS011;4587;51.434;6.788;2022-10-16T11:41:42;2.60;;;0.93;;
9102;SDS011;4587;51.434;6.788;2022-10-16T11:44:20;4.70;;;1.17;;
9102;SDS011;4587;51.434;6.788;2022-10-16T11:47:07;3.90;;;1.10;;
9102;SDS011;4587;51.434;6.788;2022-10-16T11:50:03;4.53;;;1.60;;
9102;SDS011;4587;51.434;6.788;2022-10-16T11:52:46;3.97;;;1.67;;
9102;SDS011;4587;51.434;6.788;2022-10-16T11:55:24;3.33;;;1.17;;
9102;SDS011;4587;51.434;6.788;2022-10-16T12:03:41;5.00;;;1.17;;
9102;SDS011;4587;51.434;6.788;2022-10-16T12:08:48;1.10;;;0.80;;
9102;SDS011;4587;51.434;6.788;2022-10-16T12:11:31;1.80;;;0.77;;
9102;SDS011;4587;51.434;6.788;2022-10-16T12:14:19;3.87;;;0.93;;
9102;SDS011;4587;51.434;6.788;2022-10-16T12:16:55;3.00;;;0.80;;
9102;SDS011;4587;51.434;6.788;2022-10-16T12:19:29;2.10;;;0.97;;
9102;SDS011;4587;51.434;6.788;2022-10-16T12:21:56;1.30;;;0.70;;
9102;SDS011;4587;51.434;6.788;2022-10-16T12:27:00;3.90;;;0.87;;
9102;SDS011;4587;51.434;6.788;2022-10-16T12:29:32;5.03;;;1.00;;
9102;SDS011;4587;51.434;6.788;2022-10-16T12:32:22;1.80;;;0.90;;
9102;SDS011;4587;51.434;6.788;2022-10-16T12:34:57;3.17;;;1.00;;
9102;SDS011;4587;51.434;6.788;2022-10-16T12:37:24;2.77;;;1.00;;
9102;SDS011;4587;51.434;6.788;2022-10-16T12:39:53;2.97;;;1.13;;
9102;SDS011;4587;51.434;6.788;2022-10-16T12:42:31;3.23;;;1.00;;
9102;SDS011;4587;51.434;6.788;2022-10-16T12:44:59;4.17;;;0.80;;
9102;SDS011;4587;51.434;6.788;2022-10-16T12:49:56;3.73;;;1.10;;
9102;SDS011;4587;51.434;6.788;2022-10-16T12:52:43;2.93;;;0.90;;
9102;SDS011;4587;51.434;6.788;2022-10-16T12:55:15;7.40;;;2.57;;
9102;SDS011;4587;51.434;6.788;2022-10-16T13:00:47;4.27;;;1.43;;
9102;SDS011;4587;51.434;6.788;2022-10-16T13:03:25;2.33;;;1.20;;
9102;SDS011;4587;51.434;6.788;2022-10-16T13:27:00;3.53;;;1.13;;
9102;SDS011;4587;51.434;6.788;2022-10-16T13:29:37;4.73;;;1.60;;
9102;SDS011;4587;51.434;6.788;2022-10-16T13:32:10;3.43;;;1.37;;
9102;SDS011;4587;51.434;6.788;2022-10-16T13:34:46;4.13;;;1.53;;
9102;SDS011;4587;51.434;6.788;2022-10-16T13:37:24;2.73;;;1.43;;
9102;SDS011;4587;51.434;6.788;2022-10-16T13:39:50;3.30;;;1.30;;
9102;SDS011;4587;51.434;6.788;2022-10-16T13:44:52;4.70;;;1.10;;
9102;SDS011;4587;51.434;6.788;2022-10-16T13:47:23;4.17;;;0.97;;
9102;SDS011;4587;51.434;6.788;2022-10-16T13:50:00;3.63;;;1.10;;
9102;SDS011;4587;51.434;6.788;2022-10-16T13:52:39;3.10;;;1.00;;
9102;SDS011;4587;51.434;6.788;2022-10-16T13:55:24;2.50;;;0.70;;
9102;SDS011;4587;51.434;6.788;2022-10-16T13:57:49;2.30;;;0.80;;
9102;SDS011;4587;51.434;6.788;2022-10-16T14:00:25;2.77;;;0.90;;
9102;SDS011;4587;51.434;6.788;2022-10-16T14:03:02;3.90;;;1.10;;
9102;SDS011;4587;51.434;6.788;2022-10-16T14:05:30;1.53;;;0.77;;
9102;SDS011;4587;51.434;6.788;2022-10-16T14:07:56;3.83;;;1.00;;
9102;SDS011;4587;51.434;6.788;2022-10-16T14:10:24;2.97;;;1.00;;
9102;SDS011;4587;51.434;6.788;2022-10-16T14:13:01;4.23;;;1.00;;
9102;SDS011;4587;51.434;6.788;2022-10-16T14:15:33;2.27;;;0.73;;
9102;SDS011;4587;51.434;6.788;2022-10-16T14:18:01;1.53;;;0.80;;
9102;SDS011;4587;51.434;6.788;2022-10-16T14:20:30;2.83;;;0.90;;
9102;SDS011;4587;51.434;6.788;2022-10-16T14:22:59;3.70;;;0.67;;
9102;SDS011;4587;51.434;6.788;2022-10-16T14:25:27;1.10;;;0.70;;
9102;SDS011;4587;51.434;6.788;2022-10-16T14:30:30;2.33;;;0.80;;
9102;SDS011;4587;51.434;6.788;2022-10-16T14:32:59;2.73;;;0.80;;
9102;SDS011;4587;51.434;6.788;2022-10-16T14:35:32;2.17;;;1.00;;
9102;SDS011;4587;51.434;6.788;2022-10-16T14:38:00;1.93;;;0.97;;
9102;SDS011;4587;51.434;6.788;2022-10-16T14:40:28;3.47;;;1.00;;
9102;SDS011;4587;51.434;6.788;2022-10-16T14:42:58;3.00;;;1.37;;
9102;SDS011;4587;51.434;6.788;2022-10-16T14:45:29;2.97;;;1.10;;
9102;SDS011;4587;51.434;6.788;2022-10-16T14:47:57;4.30;;;1.30;;
9102;SDS011;4587;51.434;6.788;2022-10-16T14:50:25;3.63;;;1.40;;
9102;SDS011;4587;51.434;6.788;2022-10-16T14:52:51;2.77;;;1.40;;
9102;SDS011;4587;51.434;6.788;2022-10-16T14:55:16;3.70;;;1.30;;
9102;SDS011;4587;51.434;6.788;2022-10-16T14:57:42;5.73;;;1.40;;
9102;SDS011;4587;51.434;6.788;2022-10-16T15:00:14;5.23;;;1.30;;
9102;SDS011;4587;51.434;6.788;2022-10-16T15:02:48;2.20;;;1.23;;
9102;SDS011;4587;51.434;6.788;2022-10-16T15:05:18;3.33;;;1.57;;
9102;SDS011;4587;51.434;6.788;2022-10-16T15:07:45;4.00;;;1.43;;
9102;SDS011;4587;51.434;6.788;2022-10-16T15:10:15;4.77;;;1.27;;
9102;SDS011;4587;51.434;6.788;2022-10-16T15:12:45;3.93;;;1.67;;
9102;SDS011;4587;51.434;6.788;2022-10-16T15:17:49;4.97;;;1.40;;
9102;SDS011;4587;51.434;6.788;2022-10-16T15:20:18;4.10;;;1.67;;
9102;SDS011;4587;51.434;6.788;2022-10-16T15:22:44;3.60;;;1.47;;
9102;SDS011;4587;51.434;6.788;2022-10-16T15:25:16;3.87;;;1.43;;
9102;SDS011;4587;51.434;6.788;2022-10-16T15:27:45;4.10;;;1.47;;
9102;SDS011;4587;51.434;6.788;2022-10-16T15:30:11;3.97;;;1.30;;
9102;SDS011;4587;51.434;6.788;2022-10-16T15:32:36;3.97;;;1.30;;
9102;SDS011;4587;51.434;6.788;2022-10-16T15:35:02;2.80;;;1.10;;
9102;SDS011;4587;51.434;6.788;2022-10-16T15:37:28;3.67;;;1.57;;
9102;SDS011;4587;51.434;6.788;2022-10-16T15:39:53;5.37;;;1.60;;
9102;SDS011;4587;51.434;6.788;2022-10-16T15:42:19;4.47;;;1.80;;
9102;SDS011;4587;51.434;6.788;2022-10-16T15:44:44;2.60;;;1.40;;
9102;SDS011;4587;51.434;6.788;2022-10-16T15:47:10;5.47;;;1.77;;
9102;SDS011;4587;51.434;6.788;2022-10-16T15:49:35;3.30;;;1.50;;
9102;SDS011;4587;51.434;6.788;2022-10-16T15:52:01;3.57;;;1.60;;
9102;SDS011;4587;51.434;6.788;2022-10-16T15:54:28;6.03;;;1.70;;
9102;SDS011;4587;51.434;6.788;2022-10-16T15:56:53;6.93;;;1.50;;
9102;SDS011;4587;51.434;6.788;2022-10-16T15:59:19;5.73;;;1.70;;
9102;SDS011;4587;51.434;6.788;2022-10-16T16:01:44;6.00;;;1.60;;
9102;SDS011;4587;51.434;6.788;2022-10-16T16:04:10;2.17;;;1.40;;
9102;SDS011;4587;51.434;6.788;2022-10-16T16:06:36;3.33;;;1.70;;
9102;SDS011;4587;51.434;6.788;2022-10-16T16:09:04;4.40;;;1.77;;
9102;SDS011;4587;51.434;6.788;2022-10-16T16:11:29;3.93;;;1.60;;
9102;SDS011;4587;51.434;6.788;2022-10-16T16:14:02;4.73;;;1.40;;
9102;SDS011;4587;51.434;6.788;2022-10-16T16:16:27;4.33;;;1.50;;
9102;SDS011;4587;51.434;6.788;2022-10-16T16:18:53;2.00;;;1.17;;
9102;SDS011;4587;51.434;6.788;2022-10-16T16:21:19;3.83;;;1.23;;
9102;SDS011;4587;51.434;6.788;2022-10-16T16:23:44;7.13;;;1.30;;
9102;SDS011;4587;51.434;6.788;2022-10-16T16:28:37;2.23;;;1.20;;
9102;SDS011;4587;51.434;6.788;2022-10-16T16:31:03;3.00;;;1.40;;
9102;SDS011;4587;51.434;6.788;2022-10-16T16:33:29;4.43;;;2.07;;
9102;SDS011;4587;51.434;6.788;2022-10-16T16:36:00;4.40;;;1.60;;
9102;SDS011;4587;51.434;6.788;2022-10-16T16:38:28;2.73;;;1.70;;
9102;SDS011;4587;51.434;6.788;2022-10-16T16:40:54;5.53;;;1.80;;
9102;SDS011;4587;51.434;6.788;2022-10-16T16:43:24;6.17;;;1.70;;
9102;SDS011;4587;51.434;6.788;2022-10-16T16:45:50;7.73;;;1.60;;
9102;SDS011;4587;51.434;6.788;2022-10-16T16:48:16;5.37;;;1.60;;
9102;SDS011;4587;51.434;6.788;2022-10-16T16:50:42;5.40;;;1.57;;
9102;SDS011;4587;51.434;6.788;2022-10-16T16:53:07;3.80;;;1.37;;
9102;SDS011;4587;51.434;6.788;2022-10-16T16:55:33;3.63;;;1.60;;
9102;SDS011;4587;51.434;6.788;2022-10-16T16:57:58;5.10;;;1.57;;
9102;SDS011;4587;51.434;6.788;2022-10-16T17:00:25;3.73;;;1.33;;
9102;SDS011;4587;51.434;6.788;2022-10-16T17:02:50;3.27;;;1.30;;
9102;SDS011;4587;51.434;6.788;2022-10-16T17:05:16;2.87;;;1.30;;
9102;SDS011;4587;51.434;6.788;2022-10-16T17:07:42;3.57;;;1.70;;
9102;SDS011;4587;51.434;6.788;2022-10-16T17:10:08;4.43;;;2.13;;
9102;SDS011;4587;51.434;6.788;2022-10-16T17:12:34;4.83;;;1.87;;
9102;SDS011;4587;51.434;6.788;2022-10-16T17:15:00;3.70;;;2.10;;
9102;SDS011;4587;51.434;6.788;2022-10-16T17:17:26;3.30;;;1.87;;
9102;SDS011;4587;51.434;6.788;2022-10-16T17:19:52;6.07;;;4.30;;
9102;SDS011;4587;51.434;6.788;2022-10-16T17:22:18;7.47;;;3.93;;